createdAt,value
2023-05-10T00:01:36.627Z,5.10
2023-05-10T00:04:03.414Z,4.70
2023-05-10T00:06:30.890Z,4.40
2023-05-10T00:08:57.583Z,4.30
2023-05-10T00:11:24.149Z,4.60
2023-05-10T00:13:50.785Z,4.30
2023-05-10T00:16:17.731Z,4.60
2023-05-10T00:18:44.636Z,5.00
2023-05-10T00:21:11.199Z,4.50
2023-05-10T00:23:38.413Z,5.00
2023-05-10T00:26:05.083Z,4.70
2023-05-10T00:28:31.742Z,4.20
2023-05-10T00:30:58.310Z,4.30
2023-05-10T00:33:24.986Z,3.90
2023-05-10T00:35:51.901Z,4.40
2023-05-10T00:38:18.552Z,4.60
2023-05-10T00:41:52.276Z,4.20
2023-05-10T00:44:19.634Z,4.40
2023-05-10T00:46:46.386Z,4.60
2023-05-10T00:49:14.155Z,4.50
2023-05-10T00:51:40.997Z,4.40
2023-05-10T00:54:08.340Z,4.10
2023-05-10T00:56:35.101Z,4.90
2023-05-10T00:59:02.146Z,4.70
2023-05-10T01:01:30.191Z,4.20
2023-05-10T01:03:58.010Z,4.00
2023-05-10T01:06:24.698Z,4.40
2023-05-10T01:08:52.073Z,4.10
2023-05-10T01:11:18.738Z,4.90
2023-05-10T01:13:56.726Z,4.90
2023-05-10T01:16:25.118Z,4.40
2023-05-10T01:18:53.044Z,4.50
2023-05-10T01:21:47.762Z,6.20
2023-05-10T01:25:19.881Z,4.30
2023-05-10T01:28:14.696Z,4.70
2023-05-10T01:31:09.599Z,4.10
2023-05-10T01:37:34.536Z,3.70
2023-05-10T01:40:55.316Z,4.50
2023-05-10T01:43:32.229Z,4.30
2023-05-10T01:46:14.051Z,4.60
2023-05-10T01:48:52.566Z,4.50
2023-05-10T01:51:28.932Z,4.40
2023-05-10T01:54:03.390Z,5.40
2023-05-10T01:56:34.158Z,4.80
2023-05-10T01:59:05.724Z,4.00
2023-05-10T02:01:34.584Z,4.40
2023-05-10T02:04:04.100Z,4.50
2023-05-10T02:06:33.770Z,4.10
2023-05-10T02:09:03.011Z,4.00
2023-05-10T02:11:33.150Z,4.10
2023-05-10T02:14:02.282Z,4.90
2023-05-10T02:16:32.003Z,4.20
2023-05-10T02:19:02.886Z,4.30
2023-05-10T02:21:31.892Z,4.60
2023-05-10T02:24:01.688Z,4.50
2023-05-10T02:26:30.857Z,8.20
2023-05-10T02:28:59.525Z,11.30
2023-05-10T02:31:27.280Z,12.20
2023-05-10T02:33:55.891Z,22.70
2023-05-10T02:36:24.023Z,20.40
2023-05-10T02:38:54.331Z,19.30
2023-05-10T02:41:25.310Z,14.80
2023-05-10T02:43:56.607Z,8.70
2023-05-10T02:46:24.710Z,6.10
2023-05-10T02:48:51.368Z,5.40
2023-05-10T02:51:24.600Z,5.50
2023-05-10T02:53:54.608Z,13.90
2023-05-10T02:56:29.739Z,12.80
2023-05-10T02:58:56.711Z,8.00
2023-05-10T03:01:23.688Z,6.20
2023-05-10T03:03:50.569Z,5.50
2023-05-10T03:06:17.574Z,5.50
2023-05-10T03:08:46.315Z,5.60
2023-05-10T03:11:48.298Z,5.70
2023-05-10T03:14:33.752Z,4.20
2023-05-10T03:17:23.573Z,7.80
2023-05-10T03:20:03.328Z,8.60
2023-05-10T03:22:47.070Z,7.70
2023-05-10T03:25:18.114Z,6.40
2023-05-10T03:27:46.962Z,7.40
2023-05-10T03:30:15.097Z,7.70
2023-05-10T03:32:42.218Z,9.10
2023-05-10T03:35:10.575Z,7.60
2023-05-10T03:37:37.531Z,7.10
2023-05-10T03:40:06.093Z,6.60
2023-05-10T03:42:33.720Z,7.40
2023-05-10T03:45:00.321Z,7.00
2023-05-10T03:47:27.051Z,7.40
2023-05-10T03:49:53.779Z,6.70
2023-05-10T03:52:20.832Z,5.60
2023-05-10T03:54:48.066Z,5.30
2023-05-10T03:57:14.688Z,4.60
2023-05-10T03:59:41.346Z,5.50
2023-05-10T04:02:07.969Z,5.50
2023-05-10T04:04:34.556Z,4.90
2023-05-10T04:07:01.217Z,5.50
2023-05-10T04:09:27.832Z,5.00
2023-05-10T04:11:54.401Z,3.90
2023-05-10T04:14:20.994Z,4.10
2023-05-10T04:16:47.613Z,4.40
2023-05-10T04:19:14.345Z,4.30
2023-05-10T04:21:40.974Z,4.50
2023-05-10T04:24:07.939Z,4.40
2023-05-10T04:26:34.534Z,4.30
2023-05-10T04:29:01.140Z,4.10
2023-05-10T04:31:28.950Z,3.30
2023-05-10T04:33:55.844Z,4.60
2023-05-10T04:36:22.484Z,4.40
2023-05-10T04:38:49.147Z,5.10
2023-05-10T04:41:15.900Z,4.20
2023-05-10T04:43:42.469Z,4.00
2023-05-10T04:46:09.142Z,4.60
2023-05-10T04:48:35.872Z,4.50
2023-05-10T04:51:02.585Z,4.50
2023-05-10T04:53:29.182Z,4.00
2023-05-10T04:55:55.895Z,3.80
2023-05-10T04:58:22.514Z,4.20
2023-05-10T05:00:49.179Z,4.20
2023-05-10T05:03:16.295Z,4.10
2023-05-10T05:05:43.111Z,4.10
2023-05-10T05:08:09.980Z,3.70
2023-05-10T05:10:36.554Z,4.20
2023-05-10T05:13:03.184Z,3.90
2023-05-10T05:15:31.011Z,4.00
2023-05-10T05:17:57.761Z,4.10
2023-05-10T05:20:24.459Z,4.20
2023-05-10T05:22:51.016Z,3.50
2023-05-10T05:25:17.586Z,4.20
2023-05-10T05:27:44.290Z,4.20
2023-05-10T05:30:11.624Z,4.10
2023-05-10T05:32:38.244Z,3.60
2023-05-10T05:35:05.807Z,3.50
2023-05-10T05:37:32.410Z,4.10
2023-05-10T05:39:59.123Z,3.80
2023-05-10T05:42:26.673Z,4.00
2023-05-10T05:44:53.339Z,4.00
2023-05-10T05:47:20.057Z,3.50
2023-05-10T05:49:46.967Z,4.00
2023-05-10T05:52:13.713Z,3.20
2023-05-10T05:54:40.702Z,3.90
2023-05-10T05:57:07.629Z,4.10
2023-05-10T05:59:34.315Z,4.00
2023-05-10T06:02:01.722Z,4.00
2023-05-10T06:04:28.653Z,3.90
2023-05-10T06:06:55.526Z,3.50
2023-05-10T06:09:22.161Z,3.90
2023-05-10T06:11:48.827Z,3.70
2023-05-10T06:14:15.841Z,4.10
2023-05-10T06:16:42.498Z,3.60
2023-05-10T06:19:09.137Z,3.50
2023-05-10T06:21:35.766Z,3.90
2023-05-10T06:24:02.360Z,3.80
2023-05-10T06:26:29.185Z,3.20
2023-05-10T06:28:55.778Z,4.00
2023-05-10T06:31:22.443Z,3.90
2023-05-10T06:33:49.143Z,3.70
2023-05-10T06:36:15.842Z,4.30
2023-05-10T06:38:42.522Z,3.80
2023-05-10T06:41:09.247Z,4.00
2023-05-10T06:43:36.015Z,3.70
2023-05-10T06:46:02.692Z,4.10
2023-05-10T06:48:29.464Z,3.70
2023-05-10T06:50:56.221Z,4.00
2023-05-10T06:53:22.907Z,4.20
2023-05-10T06:55:50.817Z,4.50
2023-05-10T07:00:44.902Z,3.80
2023-05-10T07:03:12.077Z,4.20
2023-05-10T07:05:39.261Z,3.70
2023-05-10T07:08:06.159Z,4.50
2023-05-10T07:10:33.678Z,3.80
2023-05-10T07:13:01.362Z,4.50
2023-05-10T07:17:55.704Z,4.10
2023-05-10T07:20:22.455Z,3.50
2023-05-10T07:22:49.012Z,4.00
2023-05-10T07:25:15.854Z,3.90
2023-05-10T07:27:42.846Z,4.00
2023-05-10T07:30:10.226Z,4.30
2023-05-10T07:32:36.841Z,4.50
2023-05-10T07:35:04.340Z,4.30
2023-05-10T07:37:31.229Z,3.70
2023-05-10T07:39:57.875Z,4.70
2023-05-10T07:42:24.516Z,3.90
2023-05-10T07:44:51.151Z,3.50
2023-05-10T07:47:17.762Z,4.30
2023-05-10T07:49:44.626Z,4.10
2023-05-10T07:52:11.213Z,4.10
2023-05-10T07:54:38.511Z,4.40
2023-05-10T07:57:05.216Z,4.00
2023-05-10T07:59:31.853Z,3.80
2023-05-10T08:01:58.454Z,3.60
2023-05-10T08:04:25.203Z,4.50
2023-05-10T08:06:51.971Z,4.50
2023-05-10T08:09:18.908Z,4.30
2023-05-10T08:11:45.480Z,4.30
2023-05-10T08:14:12.079Z,4.00
2023-05-10T08:16:38.708Z,4.00
2023-05-10T08:19:05.810Z,4.00
2023-05-10T08:21:32.811Z,3.50
2023-05-10T08:23:59.435Z,4.20
2023-05-10T08:26:26.991Z,4.70
2023-05-10T08:28:53.631Z,4.30
2023-05-10T08:31:20.374Z,4.30
2023-05-10T08:33:47.047Z,4.20
2023-05-10T08:36:15.279Z,3.80
2023-05-10T08:38:42.096Z,4.80
2023-05-10T08:41:09.879Z,4.00
2023-05-10T08:46:07.917Z,4.30
2023-05-10T08:48:35.764Z,4.10
2023-05-10T08:51:05.192Z,4.00
2023-05-10T08:53:37.454Z,3.60
2023-05-10T08:56:05.036Z,4.10
2023-05-10T08:58:32.099Z,4.30
2023-05-10T09:00:59.961Z,4.50
2023-05-10T09:08:21.816Z,4.50
2023-05-10T09:10:50.004Z,4.80
2023-05-10T09:13:18.150Z,4.30
2023-05-10T09:15:46.135Z,4.10
2023-05-10T09:18:13.964Z,4.30
2023-05-10T09:23:09.357Z,4.10
2023-05-10T09:28:03.110Z,4.50
2023-05-10T09:30:32.076Z,4.90
2023-05-10T09:33:01.046Z,4.00
2023-05-10T09:35:31.342Z,3.70
2023-05-10T09:38:05.102Z,4.50
2023-05-10T09:40:32.361Z,3.80
2023-05-10T09:43:08.504Z,4.70
2023-05-10T09:45:38.561Z,4.80
2023-05-10T09:48:07.041Z,4.40
2023-05-10T09:50:35.166Z,4.30
2023-05-10T09:53:04.960Z,4.80
2023-05-10T09:55:47.518Z,4.60
2023-05-10T09:58:15.193Z,4.40
2023-05-10T10:03:21.239Z,4.40
2023-05-10T10:05:49.728Z,4.80
2023-05-10T10:08:18.799Z,4.30
2023-05-10T10:10:47.122Z,4.40
2023-05-10T10:13:15.813Z,4.50
2023-05-10T10:15:43.390Z,4.60
2023-05-10T10:18:16.195Z,3.90
2023-05-10T10:20:43.477Z,4.90
2023-05-10T10:23:10.767Z,4.40
2023-05-10T10:25:39.747Z,5.10
2023-05-10T10:28:28.379Z,4.40
2023-05-10T10:30:57.487Z,4.50
2023-05-10T10:34:18.129Z,4.50
2023-05-10T10:36:48.124Z,4.40
2023-05-10T10:39:16.027Z,5.20
2023-05-10T10:41:57.729Z,5.10
2023-05-10T10:44:27.370Z,4.70
2023-05-10T10:47:13.290Z,4.10
2023-05-10T10:49:42.642Z,4.20
2023-05-10T10:52:41.808Z,4.50
2023-05-10T10:55:10.331Z,4.20
2023-05-10T10:57:45.737Z,4.30
2023-05-10T11:00:32.382Z,4.00
2023-05-10T11:03:08.097Z,4.60
2023-05-10T11:05:46.784Z,3.60
2023-05-10T11:08:26.691Z,4.60
2023-05-10T11:10:54.787Z,5.10
2023-05-10T11:13:47.841Z,4.90
2023-05-10T11:16:27.706Z,4.40
2023-05-10T11:19:09.006Z,5.80
2023-05-10T11:21:50.393Z,4.70
2023-05-10T11:24:23.576Z,4.60
2023-05-10T11:26:54.684Z,5.10
2023-05-10T11:29:21.419Z,4.80
2023-05-10T11:31:50.144Z,5.20
2023-05-10T11:34:34.288Z,4.90
2023-05-10T11:37:01.703Z,5.10
2023-05-10T11:39:31.097Z,4.30
2023-05-10T11:42:01.054Z,4.80
2023-05-10T11:44:34.086Z,6.20
2023-05-10T11:47:02.724Z,4.60
2023-05-10T11:49:29.686Z,3.90
2023-05-10T11:52:14.184Z,4.20
2023-05-10T11:54:55.281Z,4.70
2023-05-10T11:57:27.974Z,4.40
2023-05-10T11:59:56.235Z,4.70
2023-05-10T12:02:23.353Z,4.60
2023-05-10T12:04:51.903Z,5.00
2023-05-10T12:07:18.662Z,4.40
2023-05-10T12:09:48.695Z,5.40
2023-05-10T12:12:18.138Z,4.70
2023-05-10T12:14:44.764Z,5.20
2023-05-10T12:17:14.404Z,4.70
2023-05-10T12:19:42.240Z,4.50
2023-05-10T12:24:38.981Z,5.00
2023-05-10T12:27:09.205Z,5.80
2023-05-10T12:29:36.143Z,5.50
2023-05-10T12:32:03.497Z,5.50
2023-05-10T12:34:39.814Z,5.80
2023-05-10T12:37:06.726Z,5.90
2023-05-10T12:39:45.634Z,5.90
2023-05-10T12:42:12.958Z,5.30
2023-05-10T12:44:40.802Z,5.20
2023-05-10T12:47:08.138Z,5.30
2023-05-10T12:49:35.112Z,4.50
2023-05-10T12:52:02.108Z,5.30
2023-05-10T12:54:29.013Z,5.90
2023-05-10T12:56:55.898Z,5.40
2023-05-10T12:59:23.854Z,5.00
2023-05-10T13:01:50.695Z,5.20
2023-05-10T13:04:17.333Z,5.00
2023-05-10T13:06:44.148Z,4.90
2023-05-10T13:09:11.118Z,4.70
2023-05-10T13:11:37.950Z,5.10
2023-05-10T13:14:04.585Z,5.40
2023-05-10T13:16:32.015Z,4.20
2023-05-10T13:18:59.471Z,4.30
2023-05-10T13:21:26.376Z,4.30
2023-05-10T13:23:54.092Z,4.00
2023-05-10T13:28:47.778Z,4.10
2023-05-10T13:31:14.401Z,4.00
2023-05-10T13:33:41.205Z,3.70
2023-05-10T13:36:08.076Z,4.00
2023-05-10T13:38:34.683Z,4.50
2023-05-10T13:41:01.404Z,4.20
2023-05-10T13:43:27.991Z,3.80
2023-05-10T13:45:54.653Z,3.80
2023-05-10T13:48:22.040Z,4.20
2023-05-10T13:50:48.676Z,4.00
2023-05-10T13:53:15.636Z,4.50
2023-05-10T13:55:42.451Z,4.90
2023-05-10T13:58:09.039Z,3.90
2023-05-10T14:00:35.608Z,4.60
2023-05-10T14:03:02.283Z,8.40
2023-05-10T14:05:29.270Z,3.70
2023-05-10T14:07:56.260Z,4.10
2023-05-10T14:10:22.856Z,3.70
2023-05-10T14:12:50.426Z,4.00
2023-05-10T14:15:17.529Z,4.20
2023-05-10T14:17:44.481Z,4.00
2023-05-10T14:20:12.376Z,3.70
2023-05-10T14:22:38.949Z,3.70
2023-05-10T14:25:06.220Z,3.60
2023-05-10T14:27:33.311Z,3.60
2023-05-10T14:29:59.937Z,3.70
2023-05-10T14:32:28.481Z,3.70
2023-05-10T14:34:55.402Z,3.90
2023-05-10T14:37:21.980Z,3.60
2023-05-10T14:39:48.534Z,4.00
2023-05-10T14:42:15.086Z,3.40
2023-05-10T14:44:41.624Z,3.40
2023-05-10T14:47:08.917Z,3.60
2023-05-10T14:49:36.639Z,3.40
2023-05-10T14:52:04.168Z,3.90
2023-05-10T14:54:31.091Z,3.80
2023-05-10T14:56:57.703Z,3.60
2023-05-10T14:59:24.358Z,3.40
2023-05-10T15:01:51.420Z,4.10
2023-05-10T15:04:18.653Z,3.30
2023-05-10T15:06:46.002Z,3.50
2023-05-10T15:09:12.572Z,3.50
2023-05-10T15:11:39.214Z,3.60
2023-05-10T15:14:05.848Z,3.10
2023-05-10T15:16:35.704Z,3.30
2023-05-10T15:19:02.821Z,3.70
2023-05-10T15:21:29.616Z,3.60
2023-05-10T15:23:56.447Z,3.80
2023-05-10T15:26:23.093Z,4.50
2023-05-10T15:28:49.703Z,3.50
2023-05-10T15:31:16.355Z,4.10
2023-05-10T15:33:43.039Z,4.30
2023-05-10T15:36:09.699Z,4.30
2023-05-10T15:38:37.767Z,4.20
2023-05-10T15:41:04.494Z,3.90
2023-05-10T15:43:31.059Z,4.50
2023-05-10T15:45:57.740Z,3.70
2023-05-10T15:48:24.392Z,3.90
2023-05-10T15:50:50.944Z,4.00
2023-05-10T15:53:17.592Z,4.30
2023-05-10T15:55:44.198Z,4.30
2023-05-10T15:58:11.371Z,3.50
2023-05-10T16:00:39.190Z,3.90
2023-05-10T16:03:06.726Z,3.30
2023-05-10T16:05:33.788Z,3.50
2023-05-10T16:08:01.750Z,3.50
2023-05-10T16:10:31.613Z,3.80
2023-05-10T16:12:58.865Z,3.20
2023-05-10T16:15:25.506Z,3.60
2023-05-10T16:17:52.174Z,3.40
2023-05-10T16:20:18.980Z,3.90
2023-05-10T16:22:45.641Z,3.10
2023-05-10T16:25:13.646Z,2.90
2023-05-10T16:27:41.060Z,2.90
2023-05-10T16:30:08.998Z,3.00
2023-05-10T16:32:35.599Z,3.20
2023-05-10T16:35:02.330Z,3.50
2023-05-10T16:37:29.015Z,4.30
2023-05-10T16:39:55.625Z,3.50
2023-05-10T16:42:24.049Z,2.80
2023-05-10T16:44:50.871Z,2.60
2023-05-10T16:47:17.500Z,2.70
2023-05-10T16:49:44.201Z,2.90
2023-05-10T16:52:11.100Z,3.10
2023-05-10T16:54:37.676Z,3.60
2023-05-10T16:57:04.264Z,3.30
2023-05-10T16:59:30.991Z,3.40
2023-05-10T17:01:57.605Z,3.50
2023-05-10T17:04:25.076Z,3.60
2023-05-10T17:06:51.708Z,3.30
2023-05-10T17:09:20.201Z,2.70
2023-05-10T17:14:13.763Z,3.20
2023-05-10T17:16:40.434Z,2.90
2023-05-10T17:19:07.210Z,3.60
2023-05-10T17:21:33.930Z,3.30
2023-05-10T17:24:00.546Z,2.60
2023-05-10T17:26:27.744Z,2.70
2023-05-10T17:28:54.858Z,2.00
2023-05-10T17:31:21.706Z,2.50
2023-05-10T17:33:48.383Z,2.90
2023-05-10T17:36:15.033Z,3.40
2023-05-10T17:38:42.843Z,4.40
2023-05-10T17:43:36.116Z,3.20
2023-05-10T17:46:03.659Z,3.40
2023-05-10T17:48:30.911Z,3.60
2023-05-10T17:50:57.743Z,3.50
2023-05-10T17:53:24.895Z,3.20
2023-05-10T17:55:52.215Z,3.70
2023-05-10T17:58:18.814Z,4.20
2023-05-10T18:00:46.296Z,2.80
2023-05-10T18:03:13.056Z,2.50
2023-05-10T18:05:39.791Z,2.70
2023-05-10T18:08:07.385Z,3.20
2023-05-10T18:10:34.224Z,3.00
2023-05-10T18:13:02.473Z,3.30
2023-05-10T18:15:29.352Z,3.10
2023-05-10T18:17:56.790Z,2.70
2023-05-10T18:20:23.733Z,2.60
2023-05-10T18:22:51.710Z,3.10
2023-05-10T18:27:45.286Z,2.90
2023-05-10T18:30:13.261Z,2.90
2023-05-10T18:32:40.212Z,3.10
2023-05-10T18:35:08.565Z,3.70
2023-05-10T18:37:36.798Z,6.00
2023-05-10T18:40:05.082Z,8.60
2023-05-10T18:42:32.174Z,8.60
2023-05-10T18:44:58.919Z,7.90
2023-05-10T18:47:26.681Z,7.70
2023-05-10T18:52:19.903Z,6.00
2023-05-10T18:54:46.570Z,5.80
2023-05-10T18:57:13.836Z,6.10
2023-05-10T18:59:40.413Z,4.90
2023-05-10T19:02:07.790Z,4.70
2023-05-10T19:04:34.464Z,3.40
2023-05-10T19:07:02.137Z,3.40
2023-05-10T19:09:29.005Z,3.90
2023-05-10T19:11:56.035Z,3.00
2023-05-10T19:14:22.689Z,4.20
2023-05-10T19:16:49.314Z,4.20
2023-05-10T19:19:16.049Z,4.10
2023-05-10T19:21:42.885Z,3.70
2023-05-10T19:24:09.615Z,3.80
2023-05-10T19:26:37.264Z,3.80
2023-05-10T19:29:05.834Z,3.00
2023-05-10T19:31:33.690Z,4.50
2023-05-10T19:34:02.082Z,8.20
2023-05-10T19:36:28.930Z,8.20
2023-05-10T19:38:55.595Z,7.10
2023-05-10T19:41:22.748Z,5.30
2023-05-10T19:43:49.369Z,5.50
2023-05-10T19:46:19.284Z,5.50
2023-05-10T19:48:50.987Z,6.80
2023-05-10T19:51:17.686Z,5.10
2023-05-10T19:53:44.866Z,4.70
2023-05-10T19:56:13.084Z,4.30
2023-05-10T20:01:07.934Z,4.60
2023-05-10T20:03:36.182Z,3.80
2023-05-10T20:06:04.159Z,4.00
2023-05-10T20:08:32.498Z,4.00
2023-05-10T20:11:00.616Z,4.00
2023-05-10T20:13:27.222Z,4.70
2023-05-10T20:15:59.472Z,4.50
2023-05-10T20:18:26.951Z,4.20
2023-05-10T20:21:00.601Z,4.80
2023-05-10T20:23:27.378Z,4.70
2023-05-10T20:25:54.829Z,4.10
2023-05-10T20:28:26.240Z,3.60
2023-05-10T20:30:55.102Z,3.70
2023-05-10T20:33:25.064Z,3.50
2023-05-10T20:35:52.463Z,3.60
2023-05-10T20:38:19.533Z,3.50
2023-05-10T20:40:47.240Z,3.50
2023-05-10T20:43:13.826Z,3.00
2023-05-10T20:45:40.589Z,3.30
2023-05-10T20:48:07.880Z,3.90
2023-05-10T20:50:34.587Z,3.60
2023-05-10T20:53:01.220Z,2.90
2023-05-10T20:55:28.637Z,2.70
2023-05-10T20:57:55.290Z,3.00
2023-05-10T21:00:22.117Z,2.70
2023-05-10T21:02:48.957Z,2.60
2023-05-10T21:05:17.865Z,2.50
2023-05-10T21:07:44.516Z,2.10
2023-05-10T21:10:12.223Z,1.90
2023-05-10T21:12:39.142Z,2.10
2023-05-10T21:15:06.766Z,3.00
2023-05-10T21:17:33.517Z,2.00
2023-05-10T21:20:00.284Z,1.80
2023-05-10T21:22:27.059Z,2.00
2023-05-10T21:24:53.667Z,2.00
2023-05-10T21:27:20.627Z,2.00
2023-05-10T21:29:47.219Z,1.70
2023-05-10T21:32:14.996Z,1.70
2023-05-10T21:37:08.485Z,1.60
2023-05-10T21:39:35.182Z,2.00
2023-05-10T21:42:01.821Z,2.00
2023-05-10T21:44:28.496Z,1.90
2023-05-10T21:46:55.095Z,1.60
2023-05-10T21:49:21.698Z,1.70
2023-05-10T21:51:48.709Z,1.60
2023-05-10T21:54:15.348Z,1.80
2023-05-10T21:56:42.067Z,1.80
2023-05-10T21:59:08.919Z,1.60
2023-05-10T22:01:35.729Z,2.00
2023-05-10T22:04:02.458Z,1.90
2023-05-10T22:06:29.064Z,2.10
2023-05-10T22:08:55.789Z,1.70
2023-05-10T22:11:23.231Z,1.60
2023-05-10T22:13:49.817Z,1.70
2023-05-10T22:16:16.477Z,1.70
2023-05-10T22:18:44.305Z,2.00
2023-05-10T22:21:10.949Z,2.10
2023-05-10T22:23:37.584Z,1.90
2023-05-10T22:26:04.466Z,2.10
2023-05-10T22:28:31.109Z,2.00
2023-05-10T22:30:57.752Z,2.50
2023-05-10T22:33:24.392Z,1.90
2023-05-10T22:35:51.150Z,2.00
2023-05-10T22:38:17.751Z,1.90
2023-05-10T22:40:44.381Z,2.50
2023-05-10T22:43:11.028Z,2.40
2023-05-10T22:45:37.717Z,2.00
2023-05-10T22:48:05.208Z,2.40
2023-05-10T22:50:32.007Z,2.20
2023-05-10T22:52:58.551Z,2.10
2023-05-10T22:55:25.401Z,2.10
2023-05-10T22:57:52.517Z,2.00
2023-05-10T23:00:20.064Z,2.10
2023-05-10T23:05:13.963Z,1.90
2023-05-10T23:07:40.729Z,1.90
2023-05-10T23:10:08.222Z,2.40
2023-05-10T23:12:34.901Z,2.00
2023-05-10T23:19:02.122Z,1.90
2023-05-10T23:21:31.920Z,2.10
2023-05-10T23:23:59.120Z,2.10
2023-05-10T23:26:26.086Z,2.10
2023-05-10T23:28:52.745Z,2.20
2023-05-10T23:31:19.477Z,2.40
2023-05-10T23:33:46.080Z,2.20
2023-05-10T23:36:12.738Z,2.00
2023-05-10T23:38:39.596Z,2.50
2023-05-10T23:41:06.260Z,2.20
2023-05-10T23:43:32.866Z,2.30
2023-05-10T23:45:59.676Z,2.40
2023-05-10T23:48:26.786Z,2.30
2023-05-10T23:50:53.424Z,2.70
2023-05-10T23:53:19.989Z,2.60
2023-05-10T23:55:46.886Z,2.30
2023-05-10T23:58:13.516Z,2.80
